Time,TemperatureF,DewpointF,PressureIn,WindDirection,WindDirectionDegrees,WindSpeedMPH,WindSpeedGustMPH,Humidity,HourlyPrecipIn,Conditions,Clouds,dailyrainin,SoftwareType,DateUTC
2013-01-27 00:00:00,37.8,26.7,30.02,SSE,153,8.0,15.0,64,0.00,,SKC,0.00,VWS V14.01,2013-01-27 06:00:00,
2013-01-27 00:02:00,37.7,26.6,30.02,South,180,7.0,12.0,64,0.00,,SKC,0.00,VWS V14.01,2013-01-27 06:02:00,
2013-01-27 00:10:00,37.7,26.6,30.01,SE,132,6.0,13.0,64,0.00,,SKC,0.00,VWS V14.01,2013-01-27 06:10:00,
2013-01-27 00:14:00,37.7,26.6,30.01,SSE,155,8.0,13.0,64,0.00,,SKC,0.00,VWS V14.01,2013-01-27 06:14:00,
2013-01-27 00:22:00,37.7,26.6,30.01,SSE,155,11.0,14.0,64,0.00,,SKC,0.00,VWS V14.01,2013-01-27 06:22:00,
2013-01-27 00:26:00,37.7,26.6,30.00,SSE,161,7.0,14.0,64,0.00,,SKC,0.00,VWS V14.01,2013-01-27 06:26:00,
2013-01-27 00:29:00,37.7,26.6,30.00,SE,139,5.0,14.0,64,0.00,,SKC,0.00,VWS V14.01,2013-01-27 06:29:00,
2013-01-27 00:30:00,37.7,26.6,30.00,SE,139,5.0,14.0,64,0.00,,SKC,0.00,VWS V14.01,2013-01-27 06:30:00,
2013-01-27 00:34:00,37.8,26.7,30.00,SE,142,5.0,14.0,64,0.00,,SKC,0.00,VWS V14.01,2013-01-27 06:34:00,
2013-01-27 00:42:00,37.9,26.8,29.99,ESE,119,8.0,14.0,64,0.00,,SKC,0.00,VWS V14.01,2013-01-27 06:42:00,
2013-01-27 00:46:00,37.9,26.8,29.99,SE,146,9.0,14.0,64,0.00,,SKC,0.00,VWS V14.01,2013-01-27 06:46:00,
2013-01-27 00:50:00,37.9,26.8,29.99,SE,142,6.0,14.0,64,0.00,,SKC,0.00,VWS V14.01,2013-01-27 06:50:00,
2013-01-27 00:54:00,37.9,26.8,29.98,South,178,5.0,14.0,64,0.00,,SKC,0.00,VWS V14.01,2013-01-27 06:54:00,
2013-01-27 00:58:00,37.9,26.8,29.98,ESE,105,8.0,14.0,64,0.00,,SKC,0.00,VWS V14.01,2013-01-27 06:58:00,
2013-01-27 00:59:00,37.9,26.8,29.98,SSE,148,8.0,14.0,64,0.00,,SKC,0.00,VWS V14.01,2013-01-27 06:59:00,
2013-01-27 01:00:00,37.9,26.8,29.98,SSE,148,8.0,14.0,64,0.00,,SKC,0.00,VWS V14.01,2013-01-27 07:00:00,
2013-01-27 01:02:00,37.9,26.8,29.98,ESE,123,3.0,11.0,64,0.00,,SKC,0.00,VWS V14.01,2013-01-27 07:02:00,
2013-01-27 01:06:00,37.9,26.8,29.98,SSE,148,9.0,11.0,64,0.00,,SKC,0.00,VWS V14.01,2013-01-27 07:06:00,
2013-01-27 01:14:00,38.0,26.9,29.98,South,191,7.0,11.0,64,0.00,,SKC,0.00,VWS V14.01,2013-01-27 07:14:00,
2013-01-27 01:18:00,38.0,26.9,29.98,SSE,151,7.0,11.0,64,0.00,,SKC,0.00,VWS V14.01,2013-01-27 07:18:00,
2013-01-27 01:22:00,38.0,26.9,29.98,SSE,161,4.0,11.0,64,0.00,,SKC,0.00,VWS V14.01,2013-01-27 07:22:00,
2013-01-27 01:26:00,38.0,26.9,29.98,East,90,5.0,11.0,64,0.00,,SKC,0.00,VWS V14.01,2013-01-27 07:26:00,
2013-01-27 01:29:00,38.0,26.9,29.98,SE,134,7.0,11.0,64,0.00,,SKC,0.00,VWS V14.01,2013-01-27 07:29:00,
2013-01-27 01:30:00,38.0,26.9,29.98,SE,134,5.0,10.0,64,0.00,,SKC,0.00,VWS V14.01,2013-01-27 07:30:00,
2013-01-27 01:34:00,38.2,27.1,29.97,SE,125,2.0,10.0,64,0.00,,SKC,0.00,VWS V14.01,2013-01-27 07:34:00,
2013-01-27 01:38:00,38.3,27.2,29.98,SE,141,5.0,10.0,64,0.00,,SKC,0.00,VWS V14.01,2013-01-27 07:38:00,
2013-01-27 01:42:00,38.5,27.0,29.98,SSE,160,6.0,11.0,63,0.00,,SKC,0.00,VWS V14.01,2013-01-27 07:42:00,
2013-01-27 01:46:00,38.6,27.1,29.98,SSE,157,7.0,11.0,63,0.00,,SKC,0.00,VWS V14.01,2013-01-27 07:46:00,
2013-01-27 01:50:00,38.6,27.1,29.98,SE,146,11.0,17.0,63,0.00,,SKC,0.00,VWS V14.01,2013-01-27 07:50:00,
2013-01-27 01:54:00,38.7,27.2,29.98,SSE,159,16.0,17.0,63,0.00,,SKC,0.00,VWS V14.01,2013-01-27 07:54:00,
2013-01-27 01:58:00,38.6,27.1,29.98,SSE,164,13.0,17.0,63,0.00,,SKC,0.00,VWS V14.01,2013-01-27 07:58:00,
2013-01-27 02:00:00,38.6,27.1,29.98,SSE,155,15.0,17.0,63,0.00,,SKC,0.00,VWS V14.01,2013-01-27 08:00:00,
2013-01-27 02:06:00,38.6,27.9,29.98,SSE,158,12.0,19.0,65,0.00,,SKC,0.00,VWS V14.01,2013-01-27 08:06:00,
2013-01-27 02:14:00,38.5,28.5,29.99,SE,130,14.0,20.0,67,0.00,,SKC,0.00,VWS V14.01,2013-01-27 08:14:00,
2013-01-27 02:22:00,37.9,29.7,29.99,SSE,159,11.0,20.0,72,0.00,,SKC,0.00,VWS V14.01,2013-01-27 08:22:00,
2013-01-27 02:26:00,37.5,29.6,29.98,SSE,161,10.0,20.0,73,0.00,,SKC,0.00,VWS V14.01,2013-01-27 08:26:00,
2013-01-27 02:30:00,37.1,30.2,29.98,SSE,157,12.0,13.0,76,0.00,,SKC,0.00,VWS V14.01,2013-01-27 08:30:00,
2013-01-27 02:38:00,36.9,30.7,29.98,South,180,6.0,15.0,78,0.00,,SKC,0.00,VWS V14.01,2013-01-27 08:38:00,
2013-01-27 02:46:00,36.6,31.0,29.98,SSE,160,7.0,15.0,80,0.01,,SKC,0.01,VWS V14.01,2013-01-27 08:46:00,
2013-01-27 02:50:00,36.3,31.0,29.98,ESE,107,7.0,15.0,81,0.02,,SKC,0.02,VWS V14.01,2013-01-27 08:50:00,
2013-01-27 02:54:00,36.1,31.1,29.98,SSE,155,3.0,15.0,82,0.02,,SKC,0.02,VWS V14.01,2013-01-27 08:54:00,
2013-01-27 02:59:00,35.8,31.5,29.97,South,186,6.0,15.0,84,0.02,,SKC,0.02,VWS V14.01,2013-01-27 08:59:00,
2013-01-27 03:00:00,35.8,31.5,29.97,South,186,6.0,15.0,84,0.02,,SKC,0.02,VWS V14.01,2013-01-27 09:00:00,
2013-01-27 03:06:00,35.6,31.5,29.97,SSE,164,6.0,9.0,85,0.03,,SKC,0.03,VWS V14.01,2013-01-27 09:06:00,
2013-01-27 03:10:00,35.5,31.7,29.97,South,190,5.0,9.0,86,0.03,,SKC,0.03,VWS V14.01,2013-01-27 09:10:00,
2013-01-27 03:14:00,35.4,31.9,29.97,SE,144,6.0,9.0,87,0.03,,SKC,0.03,VWS V14.01,2013-01-27 09:14:00,
2013-01-27 03:18:00,35.4,31.9,29.96,SSW,196,4.0,9.0,87,0.03,,SKC,0.03,VWS V14.01,2013-01-27 09:18:00,
2013-01-27 03:22:00,35.3,32.1,29.96,South,190,9.0,9.0,88,0.04,,SKC,0.04,VWS V14.01,2013-01-27 09:22:00,
2013-01-27 03:26:00,35.3,32.1,29.96,SE,133,3.0,9.0,88,0.04,,SKC,0.04,VWS V14.01,2013-01-27 09:26:00,
2013-01-27 03:29:00,35.2,32.3,29.96,SSE,165,4.0,9.0,89,0.05,,SKC,0.05,VWS V14.01,2013-01-27 09:29:00,
2013-01-27 03:30:00,35.2,32.3,29.96,ESE,121,3.0,6.0,89,0.05,,SKC,0.05,VWS V14.01,2013-01-27 09:30:00,
2013-01-27 03:34:00,35.2,32.3,29.95,SSE,158,5.0,9.0,89,0.06,,SKC,0.06,VWS V14.01,2013-01-27 09:34:00,
2013-01-27 03:38:00,35.2,32.6,29.95,ESE,105,7.0,9.0,90,0.06,,SKC,0.06,VWS V14.01,2013-01-27 09:38:00,
2013-01-27 03:42:00,35.2,32.6,29.95,SSE,155,3.0,9.0,90,0.07,,SKC,0.07,VWS V14.01,2013-01-27 09:42:00,
2013-01-27 03:46:00,35.2,32.8,29.94,SSE,158,5.0,10.0,91,0.07,,SKC,0.07,VWS V14.01,2013-01-27 09:46:00,
2013-01-27 03:54:00,35.2,32.8,29.94,South,173,2.0,10.0,91,0.08,,SKC,0.08,VWS V14.01,2013-01-27 09:54:00,
2013-01-27 03:58:00,35.2,32.8,29.93,South,169,5.0,11.0,91,0.09,,SKC,0.09,VWS V14.01,2013-01-27 09:58:00,
2013-01-27 03:59:00,35.2,32.8,29.93,South,178,1.0,11.0,91,0.09,,SKC,0.09,VWS V14.01,2013-01-27 09:59:00,
2013-01-27 04:00:00,35.2,32.8,29.93,South,178,1.0,11.0,91,0.09,,SKC,0.09,VWS V14.01,2013-01-27 10:00:00,
2013-01-27 04:06:00,35.3,33.2,29.93,East,95,2.0,8.0,92,0.08,,SKC,0.10,VWS V14.01,2013-01-27 10:06:00,
2013-01-27 04:10:00,35.2,33.1,29.93,East,92,3.0,8.0,92,0.08,,SKC,0.10,VWS V14.01,2013-01-27 10:10:00,
2013-01-27 04:14:00,35.3,33.2,29.93,SE,130,6.0,8.0,92,0.08,,SKC,0.10,VWS V14.01,2013-01-27 10:14:00,
2013-01-27 04:18:00,35.3,33.2,29.93,SSE,157,3.0,8.0,92,0.08,,SKC,0.10,VWS V14.01,2013-01-27 10:18:00,
2013-01-27 04:22:00,35.3,33.2,29.92,SE,140,7.0,8.0,92,0.08,,SKC,0.10,VWS V14.01,2013-01-27 10:22:00,
2013-01-27 04:26:00,35.4,33.6,29.92,SE,128,5.0,8.0,93,0.09,,SKC,0.11,VWS V14.01,2013-01-27 10:26:00,
2013-01-27 04:29:00,35.4,33.6,29.92,South,174,2.0,11.0,93,0.09,,SKC,0.11,VWS V14.01,2013-01-27 10:29:00,
2013-01-27 04:30:00,35.4,33.6,29.92,SE,132,4.0,4.0,93,0.06,,SKC,0.11,VWS V14.01,2013-01-27 10:30:00,
2013-01-27 04:34:00,35.5,33.7,29.91,South,178,3.0,8.0,93,0.06,,SKC,0.11,VWS V14.01,2013-01-27 10:34:00,
2013-01-27 04:38:00,35.5,33.7,29.91,SSE,147,4.0,10.0,93,0.06,,SKC,0.11,VWS V14.01,2013-01-27 10:38:00,
2013-01-27 04:43:00,35.5,33.7,29.90,East,96,7.0,10.0,93,0.06,,SKC,0.11,VWS V14.01,2013-01-27 10:43:00,
2013-01-27 04:51:00,35.5,33.7,29.91,SE,143,2.0,10.0,93,0.06,,SKC,0.11,VWS V14.01,2013-01-27 10:51:00,
2013-01-27 04:55:00,35.4,33.6,29.90,ESE,115,3.0,10.0,93,0.07,,SKC,0.12,VWS V14.01,2013-01-27 10:55:00,
2013-01-27 05:00:00,35.5,33.7,29.90,ENE,77,0.0,10.0,93,0.07,,SKC,0.12,VWS V14.01,2013-01-27 11:00:00,
2013-01-27 05:03:00,35.5,33.7,29.90,East,96,0.0,4.0,93,0.03,,SKC,0.12,VWS V14.01,2013-01-27 11:03:00,
2013-01-27 05:11:00,35.5,33.7,29.88,SE,144,8.0,10.0,93,0.03,,SKC,0.12,VWS V14.01,2013-01-27 11:11:00,
2013-01-27 05:19:00,35.6,33.8,29.89,East,101,11.0,11.0,93,0.03,,SKC,0.12,VWS V14.01,2013-01-27 11:19:00,
2013-01-27 05:23:00,35.7,33.9,29.88,South,171,6.0,12.0,93,0.03,,SKC,0.12,VWS V14.01,2013-01-27 11:23:00,
2013-01-27 05:27:00,35.7,33.9,29.88,SE,127,6.0,13.0,93,0.03,,SKC,0.12,VWS V14.01,2013-01-27 11:27:00,
2013-01-27 05:29:00,35.6,33.8,29.87,NE,36,0.0,13.0,93,0.03,,SKC,0.12,VWS V14.01,2013-01-27 11:29:00,
2013-01-27 05:30:00,35.6,33.8,29.87,NE,36,0.0,13.0,93,0.03,,SKC,0.12,VWS V14.01,2013-01-27 11:30:00,
2013-01-27 05:35:00,35.7,33.9,29.87,SSE,162,4.0,12.0,93,0.01,,SKC,0.12,VWS V14.01,2013-01-27 11:35:00,
2013-01-27 05:39:00,35.7,33.9,29.88,SSE,150,9.0,12.0,93,0.01,,SKC,0.12,VWS V14.01,2013-01-27 11:39:00,
2013-01-27 05:43:00,35.7,33.9,29.87,SSE,153,3.0,12.0,93,0.01,,SKC,0.12,VWS V14.01,2013-01-27 11:43:00,
2013-01-27 05:51:00,35.8,34.0,29.88,SE,134,10.0,12.0,93,0.01,,SKC,0.12,VWS V14.01,2013-01-27 11:51:00,
2013-01-27 05:59:00,35.8,34.0,29.88,SSE,159,5.0,12.0,93,0.01,,SKC,0.12,VWS V14.01,2013-01-27 11:59:00,
2013-01-27 06:00:00,35.9,34.1,29.88,SSE,160,4.0,12.0,93,0.01,,SKC,0.12,VWS V14.01,2013-01-27 12:00:00,
2013-01-27 06:03:00,35.9,34.1,29.88,SE,134,7.0,9.0,93,0.00,,SKC,0.12,VWS V14.01,2013-01-27 12:03:00,
2013-01-27 06:11:00,35.8,34.0,29.88,ESE,115,8.0,9.0,93,0.00,,SKC,0.12,VWS V14.01,2013-01-27 12:11:00,
2013-01-27 06:15:00,35.8,34.0,29.87,East,90,2.0,9.0,93,0.00,,SKC,0.12,VWS V14.01,2013-01-27 12:15:00,
2013-01-27 06:19:00,35.7,33.9,29.87,South,185,3.0,9.0,93,0.00,,SKC,0.12,VWS V14.01,2013-01-27 12:19:00,
2013-01-27 06:23:00,35.8,34.0,29.87,ESE,112,2.0,9.0,93,0.00,,SKC,0.12,VWS V14.01,2013-01-27 12:23:00,
2013-01-27 06:27:00,35.8,34.0,29.87,SE,144,3.0,10.0,93,0.00,,SKC,0.12,VWS V14.01,2013-01-27 12:27:00,
2013-01-27 06:29:00,35.8,34.0,29.87,SSE,165,3.0,10.0,93,0.00,,SKC,0.12,VWS V14.01,2013-01-27 12:29:00,
2013-01-27 06:30:00,35.8,34.0,29.87,SSE,165,3.0,10.0,93,0.00,,SKC,0.12,VWS V14.01,2013-01-27 12:30:00,
2013-01-27 06:35:00,35.8,34.0,29.87,SSW,192,4.0,7.0,93,0.00,,SKC,0.12,VWS V14.01,2013-01-27 12:35:00,
2013-01-27 06:43:00,35.9,34.1,29.87,SSE,165,6.0,9.0,93,0.00,,SKC,0.12,VWS V14.01,2013-01-27 12:43:00,
2013-01-27 06:51:00,36.1,34.3,29.86,SE,137,2.0,9.0,93,0.00,,SKC,0.12,VWS V14.01,2013-01-27 12:51:00,
2013-01-27 06:59:00,36.2,34.4,29.85,South,186,6.0,11.0,93,0.00,,SKC,0.12,VWS V14.01,2013-01-27 12:59:00,
2013-01-27 07:00:00,36.2,34.4,29.85,ESE,119,8.0,11.0,93,0.00,,SKC,0.12,VWS V14.01,2013-01-27 13:00:00,
2013-01-27 07:07:00,36.2,34.4,29.85,SE,131,8.0,13.0,93,0.00,,SKC,0.12,VWS V14.01,2013-01-27 13:07:00,
2013-01-27 07:11:00,36.3,34.5,29.86,ESE,120,5.0,14.0,93,0.00,,SKC,0.12,VWS V14.01,2013-01-27 13:11:00,
2013-01-27 07:19:00,36.3,34.2,29.85,SSE,155,3.0,14.0,92,0.00,,SKC,0.12,VWS V14.01,2013-01-27 13:19:00,
2013-01-27 07:23:00,36.3,34.2,29.84,East,99,5.0,14.0,92,0.00,,SKC,0.12,VWS V14.01,2013-01-27 13:23:00,
2013-01-27 07:27:00,36.3,34.2,29.84,SE,146,8.0,14.0,92,0.00,,SKC,0.12,VWS V14.01,2013-01-27 13:27:00,
2013-01-27 07:29:00,36.4,34.3,29.85,SSE,147,10.0,14.0,92,0.00,,SKC,0.12,VWS V14.01,2013-01-27 13:29:00,
2013-01-27 07:30:00,36.4,34.3,29.85,SSE,147,10.0,14.0,92,0.00,,SKC,0.12,VWS V14.01,2013-01-27 13:30:00,
2013-01-27 07:31:00,36.4,34.3,29.85,South,171,8.0,10.0,92,0.00,,SKC,0.12,VWS V14.01,2013-01-27 13:31:00,
2013-01-27 07:35:00,36.4,34.3,29.85,SE,145,6.0,10.0,92,0.00,,SKC,0.12,VWS V14.01,2013-01-27 13:35:00,
2013-01-27 07:39:00,36.5,34.4,29.85,SSE,166,7.0,10.0,92,0.00,,SKC,0.12,VWS V14.01,2013-01-27 13:39:00,
2013-01-27 07:43:00,36.5,34.4,29.85,SE,146,5.0,11.0,92,0.00,,SKC,0.12,VWS V14.01,2013-01-27 13:43:00,
2013-01-27 07:51:00,36.5,34.4,29.84,East,96,3.0,11.0,92,0.00,,SKC,0.12,VWS V14.01,2013-01-27 13:51:00,
2013-01-27 07:55:00,36.6,34.5,29.84,SSE,163,2.0,11.0,92,0.00,,SKC,0.12,VWS V14.01,2013-01-27 13:55:00,
2013-01-27 07:59:00,36.7,34.6,29.84,SSE,151,3.0,11.0,92,0.00,,SKC,0.12,VWS V14.01,2013-01-27 13:59:00,
2013-01-27 08:00:00,36.7,34.6,29.84,SE,128,3.0,11.0,92,0.00,,SKC,0.12,VWS V14.01,2013-01-27 14:00:00,
2013-01-27 08:03:00,36.8,34.7,29.85,SE,136,4.0,9.0,92,0.00,,SKC,0.12,VWS V14.01,2013-01-27 14:03:00,
2013-01-27 08:11:00,36.8,34.7,29.84,ESE,123,3.0,11.0,92,0.00,,SKC,0.12,VWS V14.01,2013-01-27 14:11:00,
2013-01-27 08:15:00,36.9,34.8,29.84,SSE,163,11.0,12.0,92,0.00,,SKC,0.12,VWS V14.01,2013-01-27 14:15:00,
2013-01-27 08:19:00,36.9,34.8,29.84,SSE,160,7.0,12.0,92,0.00,,SKC,0.12,VWS V14.01,2013-01-27 14:19:00,
2013-01-27 08:23:00,36.9,34.8,29.84,SSE,165,6.0,12.0,92,0.00,,SKC,0.12,VWS V14.01,2013-01-27 14:23:00,
2013-01-27 08:27:00,37.0,34.9,29.84,SSE,163,8.0,13.0,92,0.00,,SKC,0.12,VWS V14.01,2013-01-27 14:27:00,
2013-01-27 08:29:00,37.0,34.9,29.84,SSE,153,11.0,13.0,92,0.00,,SKC,0.12,VWS V14.01,2013-01-27 14:29:00,
2013-01-27 08:30:00,37.0,34.9,29.84,SSE,153,11.0,13.0,92,0.00,,SKC,0.12,VWS V14.01,2013-01-27 14:30:00,
2013-01-27 08:31:00,37.0,34.9,29.84,SSE,164,9.0,12.0,92,0.00,,SKC,0.12,VWS V14.01,2013-01-27 14:31:00,
2013-01-27 08:39:00,37.0,34.9,29.83,SSE,157,11.0,13.0,92,0.00,,SKC,0.12,VWS V14.01,2013-01-27 14:39:00,
2013-01-27 08:47:00,36.9,34.8,29.83,SE,134,9.0,14.0,92,0.00,,SKC,0.12,VWS V14.01,2013-01-27 14:47:00,
2013-01-27 08:55:00,37.0,34.9,29.83,South,175,10.0,14.0,92,0.00,,SKC,0.12,VWS V14.01,2013-01-27 14:55:00,
2013-01-27 08:59:00,37.0,34.9,29.82,SSE,159,12.0,15.0,92,0.00,,SKC,0.12,VWS V14.01,2013-01-27 14:59:00,
2013-01-27 09:00:00,37.0,34.9,29.82,SSE,160,12.0,15.0,92,0.00,,SKC,0.12,VWS V14.01,2013-01-27 15:00:00,
2013-01-27 09:03:00,37.0,34.9,29.82,SSE,162,13.0,13.0,92,0.00,,SKC,0.12,VWS V14.01,2013-01-27 15:03:00,
2013-01-27 09:07:00,37.1,35.0,29.81,SSE,165,5.0,14.0,92,0.00,,SKC,0.12,VWS V14.01,2013-01-27 15:07:00,
2013-01-27 09:11:00,37.1,35.0,29.82,SSE,157,9.0,14.0,92,0.00,,SKC,0.12,VWS V14.01,2013-01-27 15:11:00,
2013-01-27 09:19:00,37.4,35.3,29.82,SSE,161,11.0,14.0,92,0.00,,SKC,0.12,VWS V14.01,2013-01-27 15:19:00,
2013-01-27 09:23:00,37.6,35.5,29.82,SSE,163,8.0,14.0,92,0.00,,SKC,0.12,VWS V14.01,2013-01-27 15:23:00,
2013-01-27 09:27:00,37.7,35.6,29.82,SSE,157,9.0,14.0,92,0.00,,SKC,0.12,VWS V14.01,2013-01-27 15:27:00,
2013-01-27 09:29:00,37.8,35.7,29.82,South,169,4.0,14.0,92,0.00,,SKC,0.12,VWS V14.01,2013-01-27 15:29:00,
2013-01-27 09:30:00,37.8,35.7,29.82,South,169,4.0,14.0,92,0.00,,SKC,0.12,VWS V14.01,2013-01-27 15:30:00,
2013-01-27 09:35:00,38.0,35.9,29.81,SSE,168,9.0,18.0,92,0.00,,SKC,0.12,VWS V14.01,2013-01-27 15:35:00,
2013-01-27 09:39:00,38.1,36.0,29.81,SSE,160,10.0,18.0,92,0.00,,SKC,0.12,VWS V14.01,2013-01-27 15:39:00,
2013-01-27 09:43:00,38.2,36.1,29.80,South,174,9.0,18.0,92,0.00,,SKC,0.12,VWS V14.01,2013-01-27 15:43:00,
2013-01-27 09:47:00,38.3,36.2,29.80,South,172,13.0,18.0,92,0.00,,SKC,0.12,VWS V14.01,2013-01-27 15:47:00,
2013-01-27 09:51:00,38.4,36.3,29.80,South,174,12.0,18.0,92,0.00,,SKC,0.12,VWS V14.01,2013-01-27 15:51:00,
2013-01-27 09:59:00,38.4,36.6,29.80,SSE,162,10.0,18.0,93,0.00,,SKC,0.12,VWS V14.01,2013-01-27 15:59:00,
2013-01-27 10:00:00,38.4,36.6,29.80,SSE,162,10.0,18.0,93,0.00,,SKC,0.12,VWS V14.01,2013-01-27 16:00:00,
2013-01-27 10:07:00,38.7,36.8,29.79,SE,144,12.0,17.0,93,0.00,,SKC,0.12,VWS V14.01,2013-01-27 16:07:00,
2013-01-27 10:15:00,38.8,37.0,29.79,SSE,152,15.0,19.0,93,0.00,,SKC,0.12,VWS V14.01,2013-01-27 16:15:00,
2013-01-27 10:19:00,38.8,37.0,29.79,SE,141,12.0,20.0,93,0.00,,SKC,0.12,VWS V14.01,2013-01-27 16:19:00,
2013-01-27 10:23:00,38.8,37.0,29.79,SSE,162,17.0,20.0,93,0.00,,SKC,0.12,VWS V14.01,2013-01-27 16:23:00,
2013-01-27 10:29:00,38.8,37.0,29.79,SSE,164,9.0,20.0,93,0.00,,SKC,0.12,VWS V14.01,2013-01-27 16:29:00,
2013-01-27 10:30:00,38.8,37.0,29.79,SSE,164,9.0,20.0,93,0.00,,SKC,0.12,VWS V14.01,2013-01-27 16:30:00,
2013-01-27 10:31:00,38.8,37.0,29.78,SSW,198,9.0,18.0,93,0.00,,SKC,0.12,VWS V14.01,2013-01-27 16:31:00,
2013-01-27 10:35:00,38.8,37.0,29.78,SSE,148,11.0,18.0,93,0.00,,SKC,0.12,VWS V14.01,2013-01-27 16:35:00,
2013-01-27 10:39:00,38.8,37.2,29.78,SSE,160,15.0,18.0,94,0.00,,SKC,0.12,VWS V14.01,2013-01-27 16:39:00,
2013-01-27 10:43:00,38.8,37.2,29.78,SSE,160,9.0,18.0,94,0.00,,SKC,0.12,VWS V14.01,2013-01-27 16:43:00,
2013-01-27 10:47:00,38.8,37.2,29.78,South,184,10.0,18.0,94,0.00,,SKC,0.12,VWS V14.01,2013-01-27 16:47:00,
2013-01-27 10:51:00,38.9,37.3,29.78,South,170,11.0,18.0,94,0.00,,SKC,0.12,VWS V14.01,2013-01-27 16:51:00,
2013-01-27 10:55:00,38.9,37.3,29.78,South,171,11.0,18.0,94,0.00,,SKC,0.12,VWS V14.01,2013-01-27 16:55:00,
2013-01-27 10:59:00,38.9,37.3,29.78,SSE,163,13.0,18.0,94,0.00,,SKC,0.12,VWS V14.01,2013-01-27 16:59:00,
2013-01-27 11:00:00,38.9,37.3,29.78,SSE,163,13.0,18.0,94,0.00,,SKC,0.12,VWS V14.01,2013-01-27 17:00:00,
2013-01-27 11:08:00,39.1,37.5,29.78,SSW,193,7.0,16.0,94,0.00,,SKC,0.12,VWS V14.01,2013-01-27 17:08:00,
2013-01-27 11:12:00,39.1,37.5,29.78,SSE,148,11.0,16.0,94,0.00,,SKC,0.12,VWS V14.01,2013-01-27 17:12:00,
2013-01-27 11:16:00,39.1,37.5,29.78,SSE,164,8.0,16.0,94,0.00,,SKC,0.12,VWS V14.01,2013-01-27 17:16:00,
2013-01-27 11:20:00,39.2,37.6,29.78,SSE,153,14.0,16.0,94,0.00,,SKC,0.12,VWS V14.01,2013-01-27 17:20:00,
2013-01-27 11:28:00,39.3,37.7,29.77,SSE,150,12.0,17.0,94,0.00,,SKC,0.12,VWS V14.01,2013-01-27 17:28:00,
2013-01-27 11:29:00,39.3,37.7,29.77,SSW,199,10.0,17.0,94,0.00,,SKC,0.12,VWS V14.01,2013-01-27 17:29:00,
2013-01-27 11:30:00,39.3,37.7,29.77,SSW,199,10.0,17.0,94,0.00,,SKC,0.12,VWS V14.01,2013-01-27 17:30:00,
2013-01-27 11:36:00,39.4,37.8,29.77,SSE,151,11.0,15.0,94,0.00,,SKC,0.12,VWS V14.01,2013-01-27 17:36:00,
2013-01-27 11:44:00,39.4,37.8,29.77,SE,136,9.0,15.0,94,0.00,,SKC,0.12,VWS V14.01,2013-01-27 17:44:00,
2013-01-27 11:48:00,39.5,37.9,29.77,SSE,155,5.0,15.0,94,0.00,,SKC,0.12,VWS V14.01,2013-01-27 17:48:00,
2013-01-27 11:52:00,39.5,37.9,29.76,SSE,165,10.0,15.0,94,0.00,,SKC,0.12,VWS V14.01,2013-01-27 17:52:00,
2013-01-27 11:56:00,39.6,38.0,29.76,SSE,163,7.0,15.0,94,0.00,,SKC,0.12,VWS V14.01,2013-01-27 17:56:00,
2013-01-27 11:59:00,39.6,38.0,29.76,SSE,153,7.0,15.0,94,0.00,,SKC,0.12,VWS V14.01,2013-01-27 17:59:00,
2013-01-27 12:00:00,39.6,38.0,29.76,South,180,8.0,9.0,94,0.00,,SKC,0.12,VWS V14.01,2013-01-27 18:00:00,
2013-01-27 12:08:00,39.9,38.3,29.75,SSE,167,7.0,12.0,94,0.00,,SKC,0.12,VWS V14.01,2013-01-27 18:08:00,
2013-01-27 12:12:00,40.0,38.4,29.75,South,182,11.0,13.0,94,0.00,,SKC,0.12,VWS V14.01,2013-01-27 18:12:00,
2013-01-27 12:16:00,40.2,38.9,29.75,SSE,153,8.0,15.0,95,0.00,,SKC,0.12,VWS V14.01,2013-01-27 18:16:00,
2013-01-27 12:24:00,40.5,38.9,29.74,South,182,7.0,18.0,94,0.00,,SKC,0.12,VWS V14.01,2013-01-27 18:24:00,
2013-01-27 12:28:00,40.6,39.0,29.74,SSE,159,8.0,18.0,94,0.00,,SKC,0.12,VWS V14.01,2013-01-27 18:28:00,
2013-01-27 12:29:00,40.6,39.0,29.74,ESE,117,11.0,18.0,94,0.00,,SKC,0.12,VWS V14.01,2013-01-27 18:29:00,
2013-01-27 12:30:00,40.6,39.0,29.74,ESE,117,11.0,18.0,94,0.00,,SKC,0.12,VWS V14.01,2013-01-27 18:30:00,
2013-01-27 12:36:00,40.7,39.1,29.73,SSE,157,13.0,15.0,94,0.00,,SKC,0.12,VWS V14.01,2013-01-27 18:36:00,
2013-01-27 12:44:00,40.9,39.6,29.73,South,178,7.0,15.0,95,0.00,,SKC,0.12,VWS V14.01,2013-01-27 18:44:00,
2013-01-27 12:48:00,40.9,39.6,29.73,SSE,161,8.0,15.0,95,0.00,,SKC,0.12,VWS V14.01,2013-01-27 18:48:00,
2013-01-27 12:56:00,41.0,39.7,29.72,SSE,161,11.0,15.0,95,0.00,,SKC,0.12,VWS V14.01,2013-01-27 18:56:00,
2013-01-27 12:59:00,41.1,39.8,29.72,SSE,151,12.0,15.0,95,0.00,,SKC,0.12,VWS V14.01,2013-01-27 18:59:00,
2013-01-27 13:00:00,41.0,39.7,29.72,SSE,148,9.0,12.0,95,0.00,,SKC,0.12,VWS V14.01,2013-01-27 19:00:00,
2013-01-27 13:04:00,41.1,39.8,29.72,SSE,150,9.0,12.0,95,0.00,,SKC,0.12,VWS V14.01,2013-01-27 19:04:00,
2013-01-27 13:08:00,41.1,39.8,29.72,South,175,9.0,12.0,95,0.00,,SKC,0.12,VWS V14.01,2013-01-27 19:08:00,
2013-01-27 13:16:00,41.2,39.9,29.71,SSE,154,11.0,13.0,95,0.00,,SKC,0.12,VWS V14.01,2013-01-27 19:16:00,
2013-01-27 13:24:00,41.3,40.0,29.71,SSE,159,6.0,13.0,95,0.00,,SKC,0.12,VWS V14.01,2013-01-27 19:24:00,
2013-01-27 13:28:00,41.4,40.1,29.70,SSE,157,6.0,13.0,95,0.00,,SKC,0.12,VWS V14.01,2013-01-27 19:28:00,
2013-01-27 13:29:00,41.4,40.1,29.70,SE,142,9.0,13.0,95,0.00,,SKC,0.12,VWS V14.01,2013-01-27 19:29:00,
2013-01-27 13:30:00,41.4,40.1,29.70,SE,142,9.0,13.0,95,0.00,,SKC,0.12,VWS V14.01,2013-01-27 19:30:00,
2013-01-27 13:32:00,41.4,40.1,29.70,SSE,156,8.0,10.0,95,0.00,,SKC,0.12,VWS V14.01,2013-01-27 19:32:00,
2013-01-27 13:36:00,41.4,40.1,29.70,SSE,155,8.0,10.0,95,0.00,,SKC,0.12,VWS V14.01,2013-01-27 19:36:00,
2013-01-27 13:40:00,41.5,40.2,29.70,SSE,148,5.0,10.0,95,0.01,,SKC,0.13,VWS V14.01,2013-01-27 19:40:00,
2013-01-27 13:48:00,41.6,40.3,29.69,SSW,192,9.0,11.0,95,0.01,,SKC,0.13,VWS V14.01,2013-01-27 19:48:00,
2013-01-27 13:52:00,41.7,40.4,29.69,SSE,166,7.0,11.0,95,0.01,,SKC,0.13,VWS V14.01,2013-01-27 19:52:00,
2013-01-27 13:59:00,41.9,40.6,29.69,SSE,159,5.0,11.0,95,0.01,,SKC,0.13,VWS V14.01,2013-01-27 19:59:00,
2013-01-27 14:00:00,41.9,40.6,29.69,SSE,161,6.0,7.0,95,0.01,,SKC,0.13,VWS V14.01,2013-01-27 20:00:00,
2013-01-27 14:04:00,42.0,40.7,29.69,South,186,8.0,9.0,95,0.01,,SKC,0.13,VWS V14.01,2013-01-27 20:04:00,
2013-01-27 14:08:00,42.1,40.8,29.68,South,169,3.0,9.0,95,0.01,,SKC,0.13,VWS V14.01,2013-01-27 20:08:00,
2013-01-27 14:12:00,42.2,40.9,29.68,South,186,4.0,9.0,95,0.01,,SKC,0.13,VWS V14.01,2013-01-27 20:12:00,
2013-01-27 14:20:00,42.3,41.0,29.68,SSE,157,7.0,9.0,95,0.01,,SKC,0.13,VWS V14.01,2013-01-27 20:20:00,
2013-01-27 14:24:00,42.4,41.3,29.68,SSE,164,6.0,9.0,96,0.01,,SKC,0.13,VWS V14.01,2013-01-27 20:24:00,
2013-01-27 14:28:00,42.5,41.4,29.68,SSE,159,6.0,9.0,96,0.01,,SKC,0.13,VWS V14.01,2013-01-27 20:28:00,
2013-01-27 14:29:00,42.5,41.4,29.68,SSE,161,6.0,9.0,96,0.01,,SKC,0.13,VWS V14.01,2013-01-27 20:29:00,
2013-01-27 14:30:00,42.5,41.4,29.68,SSE,161,6.0,9.0,96,0.01,,SKC,0.13,VWS V14.01,2013-01-27 20:30:00,
2013-01-27 14:36:00,42.6,41.3,29.68,SSE,155,6.0,8.0,95,0.01,,SKC,0.13,VWS V14.01,2013-01-27 20:36:00,
2013-01-27 14:40:00,42.7,41.4,29.68,SSE,161,7.0,8.0,95,0.01,,SKC,0.13,VWS V14.01,2013-01-27 20:40:00,
2013-01-27 14:48:00,42.7,41.4,29.68,SSE,161,6.0,9.0,95,0.01,,SKC,0.13,VWS V14.01,2013-01-27 20:48:00,
2013-01-27 14:52:00,42.8,41.5,29.68,South,175,3.0,9.0,95,0.01,,SKC,0.13,VWS V14.01,2013-01-27 20:52:00,
2013-01-27 14:56:00,42.8,41.5,29.68,South,178,4.0,9.0,95,0.01,,SKC,0.13,VWS V14.01,2013-01-27 20:56:00,
2013-01-27 14:59:00,42.9,41.6,29.68,SSE,159,7.0,9.0,95,0.01,,SKC,0.13,VWS V14.01,2013-01-27 20:59:00,
2013-01-27 15:00:00,42.8,41.5,29.68,SSE,157,6.0,7.0,95,0.00,,SKC,0.13,VWS V14.01,2013-01-27 21:00:00,
2013-01-27 15:08:00,42.9,41.6,29.69,South,177,2.0,7.0,95,0.00,,SKC,0.13,VWS V14.01,2013-01-27 21:08:00,
2013-01-27 15:16:00,42.9,41.6,29.69,South,172,4.0,7.0,95,0.00,,SKC,0.13,VWS V14.01,2013-01-27 21:16:00,
2013-01-27 15:20:00,42.9,41.6,29.68,SSE,165,4.0,7.0,95,0.00,,SKC,0.13,VWS V14.01,2013-01-27 21:20:00,
2013-01-27 15:24:00,42.9,41.6,29.68,SSE,161,2.0,7.0,95,0.00,,SKC,0.13,VWS V14.01,2013-01-27 21:24:00,
2013-01-27 15:28:00,42.9,41.6,29.68,SSE,165,3.0,7.0,95,0.00,,SKC,0.13,VWS V14.01,2013-01-27 21:28:00,
2013-01-27 15:30:00,42.9,41.6,29.68,South,170,2.0,7.0,95,0.00,,SKC,0.13,VWS V14.01,2013-01-27 21:30:00,
2013-01-27 15:36:00,42.9,41.8,29.68,SSE,154,4.0,6.0,96,0.00,,SKC,0.13,VWS V14.01,2013-01-27 21:36:00,
2013-01-27 15:40:00,43.0,41.9,29.68,SSE,157,5.0,7.0,96,0.00,,SKC,0.13,VWS V14.01,2013-01-27 21:40:00,
2013-01-27 15:44:00,43.0,41.9,29.68,South,169,4.0,7.0,96,0.00,,SKC,0.13,VWS V14.01,2013-01-27 21:44:00,
2013-01-27 15:48:00,43.0,41.9,29.68,South,173,3.0,7.0,96,0.01,,SKC,0.14,VWS V14.01,2013-01-27 21:48:00,
2013-01-27 15:52:00,43.0,41.9,29.68,South,173,0.0,7.0,96,0.01,,SKC,0.14,VWS V14.01,2013-01-27 21:52:00,
2013-01-27 15:56:00,43.0,41.9,29.69,South,171,0.0,7.0,96,0.01,,SKC,0.14,VWS V14.01,2013-01-27 21:56:00,
2013-01-27 15:59:00,42.9,41.8,29.69,South,171,2.0,7.0,96,0.01,,SKC,0.14,VWS V14.01,2013-01-27 21:59:00,
2013-01-27 16:00:00,42.9,41.8,29.69,South,171,2.0,4.0,96,0.01,,SKC,0.14,VWS V14.01,2013-01-27 22:00:00,
2013-01-27 16:08:00,43.0,41.9,29.69,South,171,0.0,4.0,96,0.01,,SKC,0.14,VWS V14.01,2013-01-27 22:08:00,
2013-01-27 16:12:00,43.0,41.9,29.69,South,171,0.0,4.0,96,0.01,,SKC,0.14,VWS V14.01,2013-01-27 22:12:00,
2013-01-27 16:16:00,42.9,41.8,29.69,South,171,0.0,4.0,96,0.01,,SKC,0.14,VWS V14.01,2013-01-27 22:16:00,
2013-01-27 16:20:00,42.9,41.8,29.69,South,171,0.0,4.0,96,0.01,,SKC,0.14,VWS V14.01,2013-01-27 22:20:00,
2013-01-27 16:24:00,42.9,41.8,29.69,South,171,0.0,4.0,96,0.01,,SKC,0.14,VWS V14.01,2013-01-27 22:24:00,
2013-01-27 16:29:00,42.8,41.7,29.69,South,171,0.0,4.0,96,0.01,,SKC,0.14,VWS V14.01,2013-01-27 22:29:00,
2013-01-27 16:30:00,42.8,41.7,29.69,South,171,0.0,4.0,96,0.01,,SKC,0.14,VWS V14.01,2013-01-27 22:30:00,
2013-01-27 16:36:00,42.7,41.6,29.69,South,171,0.0,1.0,96,0.01,,SKC,0.14,VWS V14.01,2013-01-27 22:36:00,
2013-01-27 16:44:00,42.7,41.6,29.69,South,171,0.0,1.0,96,0.01,,SKC,0.14,VWS V14.01,2013-01-27 22:44:00,
2013-01-27 16:48:00,42.7,41.6,29.69,South,171,0.0,1.0,96,0.01,,SKC,0.14,VWS V14.01,2013-01-27 22:48:00,
2013-01-27 16:52:00,42.7,41.6,29.70,South,171,0.0,1.0,96,0.01,,SKC,0.14,VWS V14.01,2013-01-27 22:52:00,
2013-01-27 16:56:00,42.5,41.4,29.70,South,171,0.0,1.0,96,0.01,,SKC,0.14,VWS V14.01,2013-01-27 22:56:00,
2013-01-27 16:59:00,42.5,41.4,29.70,South,171,0.0,1.0,96,0.01,,SKC,0.14,VWS V14.01,2013-01-27 22:59:00,
2013-01-27 17:00:00,42.5,41.4,29.70,South,171,0.0,1.0,96,0.01,,SKC,0.14,VWS V14.01,2013-01-27 23:00:00,
2013-01-27 17:08:00,42.5,41.4,29.70,South,171,0.0,0.0,96,0.00,,SKC,0.14,VWS V14.01,2013-01-27 23:08:00,
2013-01-27 17:12:00,42.4,41.3,29.70,South,171,0.0,0.0,96,0.00,,SKC,0.14,VWS V14.01,2013-01-27 23:12:00,
2013-01-27 17:16:00,42.1,41.0,29.70,South,171,0.0,0.0,96,0.00,,SKC,0.14,VWS V14.01,2013-01-27 23:16:00,
2013-01-27 17:24:00,41.6,40.5,29.70,NW,313,0.0,4.0,96,0.00,,SKC,0.14,VWS V14.01,2013-01-27 23:24:00,
2013-01-27 17:28:00,41.6,40.5,29.70,NW,313,0.0,4.0,96,0.00,,SKC,0.14,VWS V14.01,2013-01-27 23:28:00,
2013-01-27 17:30:00,41.6,40.5,29.70,NW,313,0.0,4.0,96,0.00,,SKC,0.14,VWS V14.01,2013-01-27 23:30:00,
2013-01-27 17:32:00,41.5,40.5,29.70,NW,313,0.0,0.0,96,0.00,,SKC,0.14,VWS V14.01,2013-01-27 23:32:00,
2013-01-27 17:40:00,41.3,40.2,29.70,NW,313,0.0,2.0,96,0.00,,SKC,0.14,VWS V14.01,2013-01-27 23:40:00,
2013-01-27 17:44:00,41.0,40.0,29.71,NW,321,3.0,4.0,96,0.00,,SKC,0.14,VWS V14.01,2013-01-27 23:44:00,
2013-01-27 17:48:00,40.8,39.8,29.71,NW,320,1.0,4.0,96,0.00,,SKC,0.14,VWS V14.01,2013-01-27 23:48:00,
2013-01-27 17:52:00,40.7,39.7,29.72,NW,320,3.0,5.0,96,0.00,,SKC,0.14,VWS V14.01,2013-01-27 23:52:00,
2013-01-27 17:59:00,40.5,39.5,29.72,NW,319,2.0,5.0,96,0.00,,SKC,0.14,VWS V14.01,2013-01-27 23:59:00,
2013-01-27 18:00:00,40.5,39.5,29.72,NW,319,5.0,5.0,96,0.00,,SKC,0.14,VWS V14.01,2013-01-28 00:00:00,
2013-01-27 18:08:00,40.2,39.2,29.72,NW,317,3.0,6.0,96,0.00,,SKC,0.14,VWS V14.01,2013-01-28 00:08:00,
2013-01-27 18:12:00,40.1,39.0,29.72,NW,317,3.0,6.0,96,0.00,,SKC,0.14,VWS V14.01,2013-01-28 00:12:00,
2013-01-27 18:16:00,40.1,39.0,29.73,NW,325,0.0,6.0,96,0.00,,SKC,0.14,VWS V14.01,2013-01-28 00:16:00,
2013-01-27 18:20:00,40.0,39.0,29.73,NW,322,1.0,6.0,96,0.00,,SKC,0.14,VWS V14.01,2013-01-28 00:20:00,
2013-01-27 18:29:00,39.9,38.8,29.73,NNW,333,4.0,6.0,96,0.00,,SKC,0.14,VWS V14.01,2013-01-28 00:29:00,
2013-01-27 18:30:00,39.9,38.8,29.73,NNW,333,1.0,6.0,96,0.00,,SKC,0.14,VWS V14.01,2013-01-28 00:30:00,
2013-01-27 18:37:00,39.7,38.7,29.74,NNW,340,2.0,4.0,96,0.00,,SKC,0.14,VWS V14.01,2013-01-28 00:37:00,
2013-01-27 18:41:00,39.6,38.6,29.74,NNW,339,3.0,6.0,96,0.00,,SKC,0.14,VWS V14.01,2013-01-28 00:41:00,
2013-01-27 18:49:00,39.5,38.5,29.74,NW,311,3.0,6.0,96,0.00,,SKC,0.14,VWS V14.01,2013-01-28 00:49:00,
2013-01-27 18:57:00,39.2,38.2,29.74,NW,318,3.0,6.0,96,0.00,,SKC,0.14,VWS V14.01,2013-01-28 00:57:00,
2013-01-27 18:59:00,39.2,38.2,29.74,NW,324,3.0,6.0,96,0.00,,SKC,0.14,VWS V14.01,2013-01-28 00:59:00,
2013-01-27 19:00:00,39.2,38.2,29.74,NW,324,3.0,6.0,96,0.00,,SKC,0.14,VWS V14.01,2013-01-28 01:00:00,
2013-01-27 19:01:00,39.2,38.2,29.74,NW,320,4.0,4.0,96,0.00,,SKC,0.14,VWS V14.01,2013-01-28 01:01:00,
2013-01-27 19:05:00,39.2,38.2,29.75,NW,322,0.0,4.0,96,0.00,,SKC,0.14,VWS V14.01,2013-01-28 01:05:00,
2013-01-27 19:13:00,39.1,38.1,29.75,NW,319,0.0,4.0,96,0.00,,SKC,0.14,VWS V14.01,2013-01-28 01:13:00,
2013-01-27 19:17:00,39.1,38.1,29.75,NW,319,2.0,4.0,96,0.00,,SKC,0.14,VWS V14.01,2013-01-28 01:17:00,
2013-01-27 19:21:00,38.9,37.9,29.75,NW,319,1.0,4.0,96,0.00,,SKC,0.14,VWS V14.01,2013-01-28 01:21:00,
2013-01-27 19:25:00,38.8,37.8,29.76,NW,319,0.0,4.0,96,0.00,,SKC,0.14,VWS V14.01,2013-01-28 01:25:00,
2013-01-27 19:29:00,38.7,37.7,29.76,NW,319,0.0,4.0,96,0.00,,SKC,0.14,VWS V14.01,2013-01-28 01:29:00,
2013-01-27 19:30:00,38.7,37.7,29.76,NW,319,0.0,4.0,96,0.00,,SKC,0.14,VWS V14.01,2013-01-28 01:30:00,
2013-01-27 19:33:00,38.6,37.6,29.76,NW,313,3.0,4.0,96,0.00,,SKC,0.14,VWS V14.01,2013-01-28 01:33:00,
2013-01-27 19:41:00,38.4,37.4,29.76,NW,307,3.0,4.0,96,0.00,,SKC,0.14,VWS V14.01,2013-01-28 01:41:00,
2013-01-27 19:50:00,38.2,37.2,29.75,NW,304,0.0,4.0,96,0.00,,SKC,0.14,VWS V14.01,2013-01-28 01:50:00,
2013-01-27 19:54:00,38.2,37.2,29.76,NW,304,0.0,4.0,96,0.00,,SKC,0.14,VWS V14.01,2013-01-28 01:54:00,
2013-01-27 19:59:00,38.1,37.1,29.76,NW,304,2.0,4.0,96,0.00,,SKC,0.14,VWS V14.01,2013-01-28 01:59:00,
2013-01-27 20:00:00,38.1,37.1,29.76,NW,304,2.0,4.0,96,0.00,,SKC,0.14,VWS V14.01,2013-01-28 02:00:00,
2013-01-27 20:02:00,38.1,37.1,29.76,NW,304,3.0,3.0,96,0.00,,SKC,0.14,VWS V14.01,2013-01-28 02:02:00,
2013-01-27 20:10:00,37.8,36.8,29.76,WNW,283,3.0,4.0,96,0.00,,SKC,0.14,VWS V14.01,2013-01-28 02:10:00,
2013-01-27 20:14:00,37.6,36.6,29.76,WNW,282,3.0,5.0,96,0.00,,SKC,0.14,VWS V14.01,2013-01-28 02:14:00,
2013-01-27 20:18:00,37.5,36.5,29.77,West,281,4.0,5.0,96,0.00,,SKC,0.14,VWS V14.01,2013-01-28 02:18:00,
2013-01-27 20:22:00,37.6,36.6,29.77,WNW,284,4.0,5.0,96,0.00,,SKC,0.14,VWS V14.01,2013-01-28 02:22:00,
2013-01-27 20:29:00,37.5,36.5,29.78,WNW,290,4.0,7.0,96,0.00,,SKC,0.14,VWS V14.01,2013-01-28 02:29:00,
2013-01-27 20:30:00,37.5,36.5,29.78,WNW,282,5.0,6.0,96,0.00,,SKC,0.14,VWS V14.01,2013-01-28 02:30:00,
2013-01-27 20:38:00,37.4,36.4,29.78,West,277,6.0,9.0,96,0.00,,SKC,0.14,VWS V14.01,2013-01-28 02:38:00,
2013-01-27 20:46:00,37.4,36.4,29.78,West,273,5.0,9.0,96,0.00,,SKC,0.14,VWS V14.01,2013-01-28 02:46:00,
2013-01-27 20:50:00,37.4,36.4,29.78,West,269,6.0,9.0,96,0.00,,SKC,0.14,VWS V14.01,2013-01-28 02:50:00,
2013-01-27 20:58:00,37.5,36.5,29.79,West,265,6.0,9.0,96,0.00,,SKC,0.14,VWS V14.01,2013-01-28 02:58:00,
2013-01-27 20:59:00,37.5,36.5,29.79,West,261,7.0,9.0,96,0.00,,SKC,0.14,VWS V14.01,2013-01-28 02:59:00,
2013-01-27 21:00:00,37.5,36.5,29.79,West,261,7.0,9.0,96,0.00,,SKC,0.14,VWS V14.01,2013-01-28 03:00:00,
2013-01-27 21:02:00,37.5,36.5,29.79,West,265,6.0,8.0,96,0.00,,SKC,0.14,VWS V14.01,2013-01-28 03:02:00,
2013-01-27 21:10:00,37.3,36.3,29.79,West,273,4.0,8.0,96,0.00,,SKC,0.14,VWS V14.01,2013-01-28 03:10:00,
2013-01-27 21:14:00,37.1,36.1,29.79,West,274,3.0,8.0,96,0.00,,SKC,0.14,VWS V14.01,2013-01-28 03:14:00,
2013-01-27 21:18:00,37.1,36.1,29.79,West,277,6.0,8.0,96,0.00,,SKC,0.14,VWS V14.01,2013-01-28 03:18:00,
2013-01-27 21:26:00,37.8,36.8,29.80,NW,309,5.0,10.0,96,0.00,,SKC,0.14,VWS V14.01,2013-01-28 03:26:00,
2013-01-27 21:29:00,37.9,36.9,29.80,West,281,5.0,10.0,96,0.00,,SKC,0.14,VWS V14.01,2013-01-28 03:29:00,
2013-01-27 21:30:00,37.9,36.9,29.80,West,281,5.0,10.0,96,0.00,,SKC,0.14,VWS V14.01,2013-01-28 03:30:00,
2013-01-27 21:34:00,37.9,36.9,29.80,WNW,286,4.0,9.0,96,0.00,,SKC,0.14,VWS V14.01,2013-01-28 03:34:00,
2013-01-27 21:38:00,37.9,36.9,29.80,WNW,285,5.0,9.0,96,0.00,,SKC,0.14,VWS V14.01,2013-01-28 03:38:00,
2013-01-27 21:42:00,37.8,36.8,29.80,WNW,291,4.0,9.0,96,0.00,,SKC,0.14,VWS V14.01,2013-01-28 03:42:00,
2013-01-27 21:50:00,37.6,36.8,29.80,WNW,292,4.0,9.0,97,0.00,,SKC,0.14,VWS V14.01,2013-01-28 03:50:00,
2013-01-27 21:54:00,37.6,36.8,29.80,WNW,289,6.0,9.0,97,0.00,,SKC,0.14,VWS V14.01,2013-01-28 03:54:00,
2013-01-27 21:59:00,37.6,36.8,29.80,WNW,303,3.0,9.0,97,0.00,,SKC,0.14,VWS V14.01,2013-01-28 03:59:00,
2013-01-27 22:00:00,37.6,36.8,29.80,WNW,303,3.0,9.0,97,0.00,,SKC,0.14,VWS V14.01,2013-01-28 04:00:00,
2013-01-27 22:02:00,37.6,36.8,29.80,NW,317,2.0,5.0,97,0.00,,SKC,0.14,VWS V14.01,2013-01-28 04:02:00,
2013-01-27 22:06:00,37.6,36.8,29.80,WNW,297,1.0,5.0,97,0.00,,SKC,0.14,VWS V14.01,2013-01-28 04:06:00,
2013-01-27 22:14:00,37.7,36.9,29.80,WNW,292,3.0,5.0,97,0.00,,SKC,0.14,VWS V14.01,2013-01-28 04:14:00,
2013-01-27 22:18:00,37.9,37.1,29.80,WNW,291,4.0,9.0,97,0.00,,SKC,0.14,VWS V14.01,2013-01-28 04:18:00,
2013-01-27 22:26:00,37.8,37.0,29.80,WNW,302,4.0,9.0,97,0.00,,SKC,0.14,VWS V14.01,2013-01-28 04:26:00,
2013-01-27 22:29:00,37.8,37.0,29.80,WNW,295,3.0,9.0,97,0.00,,SKC,0.14,VWS V14.01,2013-01-28 04:29:00,
2013-01-27 22:30:00,37.8,37.0,29.80,WNW,295,3.0,9.0,97,0.00,,SKC,0.14,VWS V14.01,2013-01-28 04:30:00,
2013-01-27 22:34:00,37.9,37.1,29.80,WNW,290,2.0,5.0,97,0.00,,SKC,0.14,VWS V14.01,2013-01-28 04:34:00,
2013-01-27 22:42:00,37.8,37.0,29.81,WNW,282,0.0,5.0,97,0.00,,SKC,0.14,VWS V14.01,2013-01-28 04:42:00,
2013-01-27 22:46:00,37.7,36.9,29.81,WNW,282,1.0,5.0,97,0.00,,SKC,0.14,VWS V14.01,2013-01-28 04:46:00,
2013-01-27 22:50:00,37.8,37.0,29.81,WNW,294,3.0,5.0,97,0.00,,SKC,0.14,VWS V14.01,2013-01-28 04:50:00,
2013-01-27 22:58:00,37.9,37.1,29.81,WNW,289,1.0,5.0,97,0.00,,SKC,0.14,VWS V14.01,2013-01-28 04:58:00,
2013-01-27 22:59:00,37.9,37.1,29.81,WNW,286,0.0,5.0,97,0.00,,SKC,0.14,VWS V14.01,2013-01-28 04:59:00,
2013-01-27 23:06:00,37.8,37.0,29.81,WNW,295,0.0,3.0,97,0.00,,SKC,0.14,VWS V14.01,2013-01-28 05:06:00,
2013-01-27 23:14:00,37.7,36.9,29.82,WNW,295,0.0,4.0,97,0.00,,SKC,0.14,VWS V14.01,2013-01-28 05:14:00,
2013-01-27 23:18:00,37.7,36.9,29.82,WNW,295,0.0,4.0,97,0.00,,SKC,0.14,VWS V14.01,2013-01-28 05:18:00,
2013-01-27 23:22:00,37.7,36.9,29.82,WNW,295,0.0,4.0,97,0.00,,SKC,0.14,VWS V14.01,2013-01-28 05:22:00,
2013-01-27 23:26:00,37.7,36.9,29.82,WNW,295,0.0,4.0,97,0.00,,SKC,0.14,VWS V14.01,2013-01-28 05:26:00,
2013-01-27 23:29:00,37.7,36.9,29.82,WNW,295,0.0,4.0,97,0.00,,SKC,0.14,VWS V14.01,2013-01-28 05:29:00,
2013-01-27 23:30:00,37.7,36.9,29.82,WNW,295,2.0,2.0,97,0.00,,SKC,0.14,VWS V14.01,2013-01-28 05:30:00,
2013-01-27 23:34:00,37.6,36.8,29.82,WNW,295,0.0,2.0,97,0.00,,SKC,0.14,VWS V14.01,2013-01-28 05:34:00,
2013-01-27 23:38:00,37.7,36.9,29.82,WNW,295,0.0,2.0,97,0.00,,SKC,0.14,VWS V14.01,2013-01-28 05:38:00,
2013-01-27 23:42:00,37.7,36.9,29.82,WNW,295,0.0,2.0,97,0.00,,SKC,0.14,VWS V14.01,2013-01-28 05:42:00,
2013-01-27 23:46:00,37.6,36.8,29.83,WNW,295,0.0,2.0,97,0.00,,SKC,0.14,VWS V14.01,2013-01-28 05:46:00,
2013-01-27 23:50:00,37.6,36.8,29.83,West,269,1.0,4.0,97,0.00,,SKC,0.14,VWS V14.01,2013-01-28 05:50:00,
2013-01-27 23:58:00,37.7,36.9,29.83,West,261,0.0,5.0,97,0.00,,SKC,0.14,VWS V14.01,2013-01-28 05:58:00,
2013-01-27 23:59:00,37.7,36.9,29.83,West,261,1.0,5.0,97,0.00,,SKC,0.00,VWS V14.01,2013-01-28 05:59:00,